sensor_id;sensor_type;location;lat;lon;timestamp;temperature;humidity
72865;DHT22;61000;48.120;11.548;2023-02-08T00:00:52;-3.40;93.00
72865;DHT22;61000;48.120;11.548;2023-02-08T00:03:19;-3.40;92.20
72865;DHT22;61000;48.120;11.548;2023-02-08T00:05:45;-3.30;92.30
72865;DHT22;61000;48.120;11.548;2023-02-08T00:08:12;-3.40;92.40
72865;DHT22;61000;48.120;11.548;2023-02-08T00:10:39;-3.40;92.40
72865;DHT22;61000;48.120;11.548;2023-02-08T00:13:07;-3.40;92.50
72865;DHT22;61000;48.120;11.548;2023-02-08T00:15:34;-3.40;92.60
72865;DHT22;61000;48.120;11.548;2023-02-08T00:18:02;-3.50;92.70
72865;DHT22;61000;48.120;11.548;2023-02-08T00:20:29;-3.50;92.70
72865;DHT22;61000;48.120;11.548;2023-02-08T00:22:56;-3.50;92.70
72865;DHT22;61000;48.120;11.548;2023-02-08T00:25:23;-3.50;92.70
72865;DHT22;61000;48.120;11.548;2023-02-08T00:27:50;-3.50;92.60
72865;DHT22;61000;48.120;11.548;2023-02-08T00:30:16;-3.60;92.60
72865;DHT22;61000;48.120;11.548;2023-02-08T00:32:43;-3.60;92.80
72865;DHT22;61000;48.120;11.548;2023-02-08T00:35:12;-3.60;92.80
72865;DHT22;61000;48.120;11.548;2023-02-08T00:37:39;-3.80;93.00
72865;DHT22;61000;48.120;11.548;2023-02-08T00:40:06;-3.70;93.10
72865;DHT22;61000;48.120;11.548;2023-02-08T00:42:33;-3.70;93.10
72865;DHT22;61000;48.120;11.548;2023-02-08T00:45:00;-3.70;92.90
72865;DHT22;61000;48.120;11.548;2023-02-08T00:47:27;-3.80;93.50
72865;DHT22;61000;48.120;11.548;2023-02-08T00:49:54;-3.80;93.70
72865;DHT22;61000;48.120;11.548;2023-02-08T00:52:22;-3.90;93.00
72865;DHT22;61000;48.120;11.548;2023-02-08T00:54:49;-3.80;93.10
72865;DHT22;61000;48.120;11.548;2023-02-08T00:57:16;-3.80;93.10
72865;DHT22;61000;48.120;11.548;2023-02-08T00:59:42;-3.80;93.20
72865;DHT22;61000;48.120;11.548;2023-02-08T01:02:10;-3.80;93.20
72865;DHT22;61000;48.120;11.548;2023-02-08T01:04:37;-3.80;93.40
72865;DHT22;61000;48.120;11.548;2023-02-08T01:07:06;-3.90;93.40
72865;DHT22;61000;48.120;11.548;2023-02-08T01:09:34;-3.90;93.30
72865;DHT22;61000;48.120;11.548;2023-02-08T01:12:02;-3.80;93.40
72865;DHT22;61000;48.120;11.548;2023-02-08T01:14:29;-3.90;93.40
72865;DHT22;61000;48.120;11.548;2023-02-08T01:16:57;-3.90;93.40
72865;DHT22;61000;48.120;11.548;2023-02-08T01:19:24;-3.90;93.50
72865;DHT22;61000;48.120;11.548;2023-02-08T01:21:51;-3.90;93.60
72865;DHT22;61000;48.120;11.548;2023-02-08T01:24:18;-3.90;93.60
72865;DHT22;61000;48.120;11.548;2023-02-08T01:26:46;-3.90;93.70
72865;DHT22;61000;48.120;11.548;2023-02-08T01:29:13;-4.00;93.80
72865;DHT22;61000;48.120;11.548;2023-02-08T01:31:41;-4.00;93.90
72865;DHT22;61000;48.120;11.548;2023-02-08T01:34:09;-4.00;94.00
72865;DHT22;61000;48.120;11.548;2023-02-08T01:36:37;-4.00;94.00
72865;DHT22;61000;48.120;11.548;2023-02-08T01:39:07;-4.00;94.10
72865;DHT22;61000;48.120;11.548;2023-02-08T01:41:37;-4.00;94.10
72865;DHT22;61000;48.120;11.548;2023-02-08T01:46:55;-4.10;94.50
72865;DHT22;61000;48.120;11.548;2023-02-08T01:49:26;-4.10;95.70
72865;DHT22;61000;48.120;11.548;2023-02-08T01:51:57;-4.10;95.80
72865;DHT22;61000;48.120;11.548;2023-02-08T01:54:33;-4.10;95.00
72865;DHT22;61000;48.120;11.548;2023-02-08T01:57:01;-4.10;95.60
72865;DHT22;61000;48.120;11.548;2023-02-08T01:59:33;-4.10;94.80
72865;DHT22;61000;48.120;11.548;2023-02-08T02:02:02;-4.10;94.90
72865;DHT22;61000;48.120;11.548;2023-02-08T02:04:30;-4.10;95.10
72865;DHT22;61000;48.120;11.548;2023-02-08T02:06:58;-4.10;95.20
72865;DHT22;61000;48.120;11.548;2023-02-08T02:09:30;-4.10;95.30
72865;DHT22;61000;48.120;11.548;2023-02-08T02:11:59;-4.10;95.50
72865;DHT22;61000;48.120;11.548;2023-02-08T02:14:27;-4.10;95.60
72865;DHT22;61000;48.120;11.548;2023-02-08T02:16:55;-4.10;95.80
72865;DHT22;61000;48.120;11.548;2023-02-08T02:19:32;-4.20;95.90
72865;DHT22;61000;48.120;11.548;2023-02-08T02:22:11;-4.10;96.00
72865;DHT22;61000;48.120;11.548;2023-02-08T02:25:06;-4.10;96.00
72865;DHT22;61000;48.120;11.548;2023-02-08T02:27:57;-4.10;96.20
72865;DHT22;61000;48.120;11.548;2023-02-08T02:34:00;-4.10;96.30
72865;DHT22;61000;48.120;11.548;2023-02-08T02:36:34;-4.20;96.30
72865;DHT22;61000;48.120;11.548;2023-02-08T02:39:11;-4.20;96.30
72865;DHT22;61000;48.120;11.548;2023-02-08T02:41:51;-4.20;96.20
72865;DHT22;61000;48.120;11.548;2023-02-08T02:44:41;-4.20;96.20
72865;DHT22;61000;48.120;11.548;2023-02-08T02:47:17;-4.30;96.20
72865;DHT22;61000;48.120;11.548;2023-02-08T02:49:51;-4.30;96.20
72865;DHT22;61000;48.120;11.548;2023-02-08T02:52:23;-4.30;96.20
72865;DHT22;61000;48.120;11.548;2023-02-08T02:54:54;-4.40;96.80
72865;DHT22;61000;48.120;11.548;2023-02-08T02:57:26;-4.30;96.20
72865;DHT22;61000;48.120;11.548;2023-02-08T02:59:54;-4.30;96.30
72865;DHT22;61000;48.120;11.548;2023-02-08T03:02:23;-4.30;96.30
72865;DHT22;61000;48.120;11.548;2023-02-08T03:04:54;-4.30;96.30
72865;DHT22;61000;48.120;11.548;2023-02-08T03:07:32;-4.30;96.40
72865;DHT22;61000;48.120;11.548;2023-02-08T03:10:11;-4.30;96.40
72865;DHT22;61000;48.120;11.548;2023-02-08T03:12:54;-4.30;96.50
72865;DHT22;61000;48.120;11.548;2023-02-08T03:15:29;-4.40;96.50
72865;DHT22;61000;48.120;11.548;2023-02-08T03:18:10;-4.40;96.60
72865;DHT22;61000;48.120;11.548;2023-02-08T03:20:48;-4.40;96.60
72865;DHT22;61000;48.120;11.548;2023-02-08T03:23:20;-4.40;96.50
72865;DHT22;61000;48.120;11.548;2023-02-08T03:25:51;-4.40;96.60
72865;DHT22;61000;48.120;11.548;2023-02-08T03:28:23;-4.40;96.70
72865;DHT22;61000;48.120;11.548;2023-02-08T03:30:57;-4.40;96.90
72865;DHT22;61000;48.120;11.548;2023-02-08T03:33:30;-4.50;96.90
72865;DHT22;61000;48.120;11.548;2023-02-08T03:36:03;-4.50;96.90
72865;DHT22;61000;48.120;11.548;2023-02-08T03:38:34;-4.50;97.00
72865;DHT22;61000;48.120;11.548;2023-02-08T03:41:03;-4.50;97.00
72865;DHT22;61000;48.120;11.548;2023-02-08T03:43:35;-4.50;97.00
72865;DHT22;61000;48.120;11.548;2023-02-08T03:46:07;-4.50;97.00
72865;DHT22;61000;48.120;11.548;2023-02-08T03:48:37;-4.50;97.10
72865;DHT22;61000;48.120;11.548;2023-02-08T03:51:08;-4.50;97.10
72865;DHT22;61000;48.120;11.548;2023-02-08T03:53:36;-4.50;97.20
72865;DHT22;61000;48.120;11.548;2023-02-08T03:56:09;-4.60;97.30
72865;DHT22;61000;48.120;11.548;2023-02-08T03:58:40;-4.50;97.40
72865;DHT22;61000;48.120;11.548;2023-02-08T04:01:15;-4.50;97.40
72865;DHT22;61000;48.120;11.548;2023-02-08T04:03:45;-4.60;97.40
72865;DHT22;61000;48.120;11.548;2023-02-08T04:06:16;-4.50;97.40
72865;DHT22;61000;48.120;11.548;2023-02-08T04:08:42;-4.50;97.50
72865;DHT22;61000;48.120;11.548;2023-02-08T04:11:09;-4.50;97.60
72865;DHT22;61000;48.120;11.548;2023-02-08T04:13:36;-4.60;97.70
72865;DHT22;61000;48.120;11.548;2023-02-08T04:16:03;-4.50;97.70
72865;DHT22;61000;48.120;11.548;2023-02-08T04:18:30;-4.50;97.80
72865;DHT22;61000;48.120;11.548;2023-02-08T04:20:57;-4.50;97.90
72865;DHT22;61000;48.120;11.548;2023-02-08T04:23:25;-4.60;97.80
72865;DHT22;61000;48.120;11.548;2023-02-08T04:25:52;-4.60;97.80
72865;DHT22;61000;48.120;11.548;2023-02-08T04:28:19;-4.60;97.90
72865;DHT22;61000;48.120;11.548;2023-02-08T04:30:46;-4.60;98.00
72865;DHT22;61000;48.120;11.548;2023-02-08T04:33:12;-4.60;98.20
72865;DHT22;61000;48.120;11.548;2023-02-08T04:35:39;-4.70;98.10
72865;DHT22;61000;48.120;11.548;2023-02-08T04:38:07;-4.70;98.20
72865;DHT22;61000;48.120;11.548;2023-02-08T04:40:35;-4.70;98.30
72865;DHT22;61000;48.120;11.548;2023-02-08T04:43:02;-4.70;98.40
72865;DHT22;61000;48.120;11.548;2023-02-08T04:45:29;-4.70;98.50
72865;DHT22;61000;48.120;11.548;2023-02-08T04:47:57;-4.70;98.60
72865;DHT22;61000;48.120;11.548;2023-02-08T04:50:24;-4.80;98.60
72865;DHT22;61000;48.120;11.548;2023-02-08T04:52:51;-4.80;98.70
72865;DHT22;61000;48.120;11.548;2023-02-08T04:55:17;-4.90;98.80
72865;DHT22;61000;48.120;11.548;2023-02-08T04:57:46;-4.90;99.10
72865;DHT22;61000;48.120;11.548;2023-02-08T05:00:13;-4.90;99.70
72865;DHT22;61000;48.120;11.548;2023-02-08T05:02:40;-5.00;99.80
72865;DHT22;61000;48.120;11.548;2023-02-08T05:05:07;-5.00;99.80
72865;DHT22;61000;48.120;11.548;2023-02-08T05:07:34;-5.00;99.80
72865;DHT22;61000;48.120;11.548;2023-02-08T05:10:01;-5.00;99.90
72865;DHT22;61000;48.120;11.548;2023-02-08T05:12:29;-5.10;99.90
72865;DHT22;61000;48.120;11.548;2023-02-08T05:14:57;-5.10;99.90
72865;DHT22;61000;48.120;11.548;2023-02-08T05:17:23;-5.20;99.90
72865;DHT22;61000;48.120;11.548;2023-02-08T05:19:50;-5.10;99.90
72865;DHT22;61000;48.120;11.548;2023-02-08T05:22:17;-5.10;99.90
72865;DHT22;61000;48.120;11.548;2023-02-08T05:24:44;-5.10;99.90
72865;DHT22;61000;48.120;11.548;2023-02-08T05:27:11;-5.10;99.90
72865;DHT22;61000;48.120;11.548;2023-02-08T05:29:38;-5.20;99.90
72865;DHT22;61000;48.120;11.548;2023-02-08T05:32:06;-5.20;99.90
72865;DHT22;61000;48.120;11.548;2023-02-08T05:34:33;-5.20;99.90
72865;DHT22;61000;48.120;11.548;2023-02-08T05:36:59;-5.20;99.90
72865;DHT22;61000;48.120;11.548;2023-02-08T05:39:26;-5.20;99.90
72865;DHT22;61000;48.120;11.548;2023-02-08T05:41:53;-5.20;99.90
72865;DHT22;61000;48.120;11.548;2023-02-08T05:44:20;-5.20;99.90
72865;DHT22;61000;48.120;11.548;2023-02-08T05:46:47;-5.20;99.90
72865;DHT22;61000;48.120;11.548;2023-02-08T05:49:15;-5.20;99.90
72865;DHT22;61000;48.120;11.548;2023-02-08T05:51:42;-5.20;99.90
72865;DHT22;61000;48.120;11.548;2023-02-08T05:54:09;-5.20;99.90
72865;DHT22;61000;48.120;11.548;2023-02-08T05:56:36;-5.10;99.90
72865;DHT22;61000;48.120;11.548;2023-02-08T05:59:03;-5.10;99.90
72865;DHT22;61000;48.120;11.548;2023-02-08T06:01:30;-5.20;99.90
72865;DHT22;61000;48.120;11.548;2023-02-08T06:03:57;-5.30;99.90
72865;DHT22;61000;48.120;11.548;2023-02-08T06:06:25;-5.20;99.90
72865;DHT22;61000;48.120;11.548;2023-02-08T06:08:53;-5.20;99.90
72865;DHT22;61000;48.120;11.548;2023-02-08T06:11:20;-5.20;99.90
72865;DHT22;61000;48.120;11.548;2023-02-08T06:13:47;-4.60;99.90
72865;DHT22;61000;48.120;11.548;2023-02-08T06:16:14;-5.10;99.90
72865;DHT22;61000;48.120;11.548;2023-02-08T06:18:41;-5.20;99.90
72865;DHT22;61000;48.120;11.548;2023-02-08T06:21:08;-5.20;99.90
72865;DHT22;61000;48.120;11.548;2023-02-08T06:23:38;-5.20;99.90
72865;DHT22;61000;48.120;11.548;2023-02-08T06:26:05;-5.20;99.90
72865;DHT22;61000;48.120;11.548;2023-02-08T06:28:32;-5.20;99.90
72865;DHT22;61000;48.120;11.548;2023-02-08T06:30:59;-5.30;99.90
72865;DHT22;61000;48.120;11.548;2023-02-08T06:33:26;-5.30;99.90
72865;DHT22;61000;48.120;11.548;2023-02-08T06:35:53;-5.30;99.90
72865;DHT22;61000;48.120;11.548;2023-02-08T06:38:20;-5.30;99.90
72865;DHT22;61000;48.120;11.548;2023-02-08T06:40:48;-5.30;99.90
72865;DHT22;61000;48.120;11.548;2023-02-08T06:43:16;-5.40;99.90
72865;DHT22;61000;48.120;11.548;2023-02-08T06:45:43;-5.40;99.90
72865;DHT22;61000;48.120;11.548;2023-02-08T06:48:10;-5.40;99.90
72865;DHT22;61000;48.120;11.548;2023-02-08T06:50:37;-5.40;99.90
72865;DHT22;61000;48.120;11.548;2023-02-08T06:53:04;-5.40;99.90
72865;DHT22;61000;48.120;11.548;2023-02-08T06:55:31;-5.40;99.90
72865;DHT22;61000;48.120;11.548;2023-02-08T06:57:59;-5.40;99.90
72865;DHT22;61000;48.120;11.548;2023-02-08T07:00:26;-5.40;99.90
72865;DHT22;61000;48.120;11.548;2023-02-08T07:02:52;-5.30;99.90
72865;DHT22;61000;48.120;11.548;2023-02-08T07:05:19;-5.30;99.90
72865;DHT22;61000;48.120;11.548;2023-02-08T07:07:46;-5.30;99.90
72865;DHT22;61000;48.120;11.548;2023-02-08T07:10:14;-5.30;99.90
72865;DHT22;61000;48.120;11.548;2023-02-08T07:12:40;-5.30;99.90
72865;DHT22;61000;48.120;11.548;2023-02-08T07:15:09;-5.00;99.90
72865;DHT22;61000;48.120;11.548;2023-02-08T07:17:38;-4.30;99.90
72865;DHT22;61000;48.120;11.548;2023-02-08T07:20:05;-3.90;99.90
72865;DHT22;61000;48.120;11.548;2023-02-08T07:22:32;-3.70;99.90
72865;DHT22;61000;48.120;11.548;2023-02-08T07:24:59;-3.70;99.90
72865;DHT22;61000;48.120;11.548;2023-02-08T07:27:26;-3.60;99.90
72865;DHT22;61000;48.120;11.548;2023-02-08T07:29:53;-3.70;99.90
72865;DHT22;61000;48.120;11.548;2023-02-08T07:32:21;-3.50;99.90
72865;DHT22;61000;48.120;11.548;2023-02-08T07:34:48;-3.60;99.90
72865;DHT22;61000;48.120;11.548;2023-02-08T07:37:15;-4.00;99.90
72865;DHT22;61000;48.120;11.548;2023-02-08T07:39:42;-4.30;99.90
72865;DHT22;61000;48.120;11.548;2023-02-08T07:42:10;-4.40;99.90
72865;DHT22;61000;48.120;11.548;2023-02-08T07:44:49;-4.60;99.90
72865;DHT22;61000;48.120;11.548;2023-02-08T07:47:16;-4.50;99.90
72865;DHT22;61000;48.120;11.548;2023-02-08T07:49:44;-4.50;99.90
72865;DHT22;61000;48.120;11.548;2023-02-08T07:52:11;-4.50;99.90
72865;DHT22;61000;48.120;11.548;2023-02-08T07:54:38;-4.50;99.90
72865;DHT22;61000;48.120;11.548;2023-02-08T07:57:04;-4.50;99.90
72865;DHT22;61000;48.120;11.548;2023-02-08T07:59:32;-4.40;99.90
72865;DHT22;61000;48.120;11.548;2023-02-08T08:01:59;-4.50;99.90
72865;DHT22;61000;48.120;11.548;2023-02-08T08:04:26;-4.40;99.90
72865;DHT22;61000;48.120;11.548;2023-02-08T08:06:54;-4.40;99.90
72865;DHT22;61000;48.120;11.548;2023-02-08T08:09:21;-4.30;99.90
72865;DHT22;61000;48.120;11.548;2023-02-08T08:11:48;-4.20;99.90
72865;DHT22;61000;48.120;11.548;2023-02-08T08:14:15;-4.10;99.90
72865;DHT22;61000;48.120;11.548;2023-02-08T08:16:42;-4.00;99.90
72865;DHT22;61000;48.120;11.548;2023-02-08T08:19:09;-3.90;99.90
72865;DHT22;61000;48.120;11.548;2023-02-08T08:21:36;-3.80;99.90
72865;DHT22;61000;48.120;11.548;2023-02-08T08:24:04;-3.80;99.90
72865;DHT22;61000;48.120;11.548;2023-02-08T08:26:31;-3.60;99.90
72865;DHT22;61000;48.120;11.548;2023-02-08T08:28:59;-3.60;99.90
72865;DHT22;61000;48.120;11.548;2023-02-08T08:31:27;-3.50;99.90
72865;DHT22;61000;48.120;11.548;2023-02-08T08:33:55;-3.30;99.90
72865;DHT22;61000;48.120;11.548;2023-02-08T08:36:22;-3.30;99.90
72865;DHT22;61000;48.120;11.548;2023-02-08T08:38:50;-3.40;99.90
72865;DHT22;61000;48.120;11.548;2023-02-08T08:41:18;-3.40;99.90
72865;DHT22;61000;48.120;11.548;2023-02-08T08:43:46;-3.40;99.90
72865;DHT22;61000;48.120;11.548;2023-02-08T08:46:13;-3.40;99.90
72865;DHT22;61000;48.120;11.548;2023-02-08T08:48:41;-3.30;99.90
72865;DHT22;61000;48.120;11.548;2023-02-08T08:51:08;-3.20;99.90
72865;DHT22;61000;48.120;11.548;2023-02-08T08:53:35;-3.20;99.90
72865;DHT22;61000;48.120;11.548;2023-02-08T08:56:02;-3.10;99.90
72865;DHT22;61000;48.120;11.548;2023-02-08T08:58:31;-2.90;99.90
72865;DHT22;61000;48.120;11.548;2023-02-08T09:00:58;-2.90;99.90
72865;DHT22;61000;48.120;11.548;2023-02-08T09:03:26;-2.90;99.90
72865;DHT22;61000;48.120;11.548;2023-02-08T09:05:53;-2.90;99.90
72865;DHT22;61000;48.120;11.548;2023-02-08T09:08:20;-2.80;99.90
72865;DHT22;61000;48.120;11.548;2023-02-08T09:10:47;-2.70;99.90
72865;DHT22;61000;48.120;11.548;2023-02-08T09:13:14;-2.60;99.90
72865;DHT22;61000;48.120;11.548;2023-02-08T09:15:45;-2.50;99.90
72865;DHT22;61000;48.120;11.548;2023-02-08T09:18:12;-2.50;99.90
72865;DHT22;61000;48.120;11.548;2023-02-08T09:20:39;-2.50;99.90
72865;DHT22;61000;48.120;11.548;2023-02-08T09:23:06;-2.40;99.90
72865;DHT22;61000;48.120;11.548;2023-02-08T09:25:34;-2.30;99.90
72865;DHT22;61000;48.120;11.548;2023-02-08T09:28:01;-2.20;99.40
72865;DHT22;61000;48.120;11.548;2023-02-08T09:30:28;-2.20;97.40
72865;DHT22;61000;48.120;11.548;2023-02-08T09:32:56;-2.00;96.80
72865;DHT22;61000;48.120;11.548;2023-02-08T09:35:23;-1.10;99.90
72865;DHT22;61000;48.120;11.548;2023-02-08T09:37:52;-0.10;99.40
72865;DHT22;61000;48.120;11.548;2023-02-08T09:40:24;0.50;96.50
72865;DHT22;61000;48.120;11.548;2023-02-08T09:43:00;0.90;90.60
72865;DHT22;61000;48.120;11.548;2023-02-08T09:45:38;1.30;94.70
72865;DHT22;61000;48.120;11.548;2023-02-08T09:48:15;1.50;87.60
72865;DHT22;61000;48.120;11.548;2023-02-08T09:53:16;2.20;89.00
72865;DHT22;61000;48.120;11.548;2023-02-08T09:55:46;1.50;83.80
72865;DHT22;61000;48.120;11.548;2023-02-08T09:58:19;1.10;89.30
72865;DHT22;61000;48.120;11.548;2023-02-08T10:00:48;1.50;89.50
72865;DHT22;61000;48.120;11.548;2023-02-08T10:03:30;1.50;88.30
72865;DHT22;61000;48.120;11.548;2023-02-08T10:05:58;1.90;90.50
72865;DHT22;61000;48.120;11.548;2023-02-08T10:08:32;1.50;90.90
72865;DHT22;61000;48.120;11.548;2023-02-08T10:11:32;1.40;91.00
72865;DHT22;61000;48.120;11.548;2023-02-08T10:14:18;1.20;91.20
72865;DHT22;61000;48.120;11.548;2023-02-08T10:17:00;1.20;91.50
72865;DHT22;61000;48.120;11.548;2023-02-08T10:19:46;0.80;90.70
72865;DHT22;61000;48.120;11.548;2023-02-08T10:22:23;0.50;91.90
72865;DHT22;61000;48.120;11.548;2023-02-08T10:25:15;0.40;93.00
72865;DHT22;61000;48.120;11.548;2023-02-08T10:27:51;0.30;93.70
72865;DHT22;61000;48.120;11.548;2023-02-08T10:30:27;0.20;94.00
72865;DHT22;61000;48.120;11.548;2023-02-08T10:33:00;0.10;94.30
72865;DHT22;61000;48.120;11.548;2023-02-08T10:35:31;0.10;96.20
72865;DHT22;61000;48.120;11.548;2023-02-08T10:38:22;0.00;93.60
72865;DHT22;61000;48.120;11.548;2023-02-08T10:40:51;-0.20;93.00
72865;DHT22;61000;48.120;11.548;2023-02-08T10:43:25;-0.30;93.10
72865;DHT22;61000;48.120;11.548;2023-02-08T10:46:01;-0.30;93.30
72865;DHT22;61000;48.120;11.548;2023-02-08T10:48:40;-0.30;93.40
72865;DHT22;61000;48.120;11.548;2023-02-08T10:51:11;-0.30;93.50
72865;DHT22;61000;48.120;11.548;2023-02-08T10:53:40;-0.40;93.80
72865;DHT22;61000;48.120;11.548;2023-02-08T10:56:23;-0.30;94.00
72865;DHT22;61000;48.120;11.548;2023-02-08T10:58:52;-0.30;93.70
72865;DHT22;61000;48.120;11.548;2023-02-08T11:01:20;-0.30;93.80
72865;DHT22;61000;48.120;11.548;2023-02-08T11:03:59;-0.30;93.30
72865;DHT22;61000;48.120;11.548;2023-02-08T11:06:28;-0.20;93.40
72865;DHT22;61000;48.120;11.548;2023-02-08T11:08:55;-0.10;93.40
72865;DHT22;61000;48.120;11.548;2023-02-08T11:11:24;-0.10;93.20
72865;DHT22;61000;48.120;11.548;2023-02-08T11:14:04;0.00;93.10
72865;DHT22;61000;48.120;11.548;2023-02-08T11:16:33;-0.20;92.80
72865;DHT22;61000;48.120;11.548;2023-02-08T11:19:00;-0.20;93.20
72865;DHT22;61000;48.120;11.548;2023-02-08T11:21:32;-0.20;93.60
72865;DHT22;61000;48.120;11.548;2023-02-08T11:24:03;-0.30;93.70
72865;DHT22;61000;48.120;11.548;2023-02-08T11:26:33;-0.40;93.50
72865;DHT22;61000;48.120;11.548;2023-02-08T11:29:02;-0.40;93.70
72865;DHT22;61000;48.120;11.548;2023-02-08T11:31:30;-0.40;93.90
72865;DHT22;61000;48.120;11.548;2023-02-08T11:34:02;-0.40;94.10
72865;DHT22;61000;48.120;11.548;2023-02-08T11:36:32;-0.30;94.00
72865;DHT22;61000;48.120;11.548;2023-02-08T11:39:01;-0.30;93.90
72865;DHT22;61000;48.120;11.548;2023-02-08T11:41:29;-0.30;94.10
72865;DHT22;61000;48.120;11.548;2023-02-08T11:44:00;-0.20;94.20
72865;DHT22;61000;48.120;11.548;2023-02-08T11:46:28;-0.20;94.10
72865;DHT22;61000;48.120;11.548;2023-02-08T11:48:56;-0.30;94.30
72865;DHT22;61000;48.120;11.548;2023-02-08T11:51:27;-0.30;94.60
72865;DHT22;61000;48.120;11.548;2023-02-08T11:53:56;-0.20;94.60
72865;DHT22;61000;48.120;11.548;2023-02-08T11:56:27;-0.20;94.40
72865;DHT22;61000;48.120;11.548;2023-02-08T11:59:03;-0.20;94.20
72865;DHT22;61000;48.120;11.548;2023-02-08T12:01:33;-0.10;93.80
72865;DHT22;61000;48.120;11.548;2023-02-08T12:04:02;0.00;93.60
72865;DHT22;61000;48.120;11.548;2023-02-08T12:06:49;0.00;93.80
72865;DHT22;61000;48.120;11.548;2023-02-08T12:12:22;0.10;94.00
72865;DHT22;61000;48.120;11.548;2023-02-08T12:14:57;0.20;93.90
72865;DHT22;61000;48.120;11.548;2023-02-08T12:17:38;0.30;93.90
72865;DHT22;61000;48.120;11.548;2023-02-08T12:20:23;0.40;94.10
72865;DHT22;61000;48.120;11.548;2023-02-08T12:23:03;0.50;94.30
72865;DHT22;61000;48.120;11.548;2023-02-08T12:25:40;0.40;93.90
72865;DHT22;61000;48.120;11.548;2023-02-08T12:28:18;0.30;94.10
72865;DHT22;61000;48.120;11.548;2023-02-08T12:30:49;0.30;94.00
72865;DHT22;61000;48.120;11.548;2023-02-08T12:33:37;0.20;94.20
72865;DHT22;61000;48.120;11.548;2023-02-08T12:36:19;0.40;94.10
72865;DHT22;61000;48.120;11.548;2023-02-08T12:39:05;0.50;94.10
72865;DHT22;61000;48.120;11.548;2023-02-08T12:42:08;0.50;93.90
72865;DHT22;61000;48.120;11.548;2023-02-08T12:44:48;0.60;94.00
72865;DHT22;61000;48.120;11.548;2023-02-08T12:47:40;0.60;95.10
72865;DHT22;61000;48.120;11.548;2023-02-08T12:50:18;0.70;95.30
72865;DHT22;61000;48.120;11.548;2023-02-08T12:52:50;0.80;95.50
72865;DHT22;61000;48.120;11.548;2023-02-08T12:55:22;0.80;95.40
72865;DHT22;61000;48.120;11.548;2023-02-08T12:57:53;0.70;95.30
72865;DHT22;61000;48.120;11.548;2023-02-08T13:00:23;0.90;95.40
72865;DHT22;61000;48.120;11.548;2023-02-08T13:02:57;0.70;94.60
72865;DHT22;61000;48.120;11.548;2023-02-08T13:05:32;0.70;94.60
72865;DHT22;61000;48.120;11.548;2023-02-08T13:08:06;0.80;94.60
72865;DHT22;61000;48.120;11.548;2023-02-08T13:10:37;0.90;94.40
72865;DHT22;61000;48.120;11.548;2023-02-08T13:13:14;0.50;94.70
72865;DHT22;61000;48.120;11.548;2023-02-08T13:15:44;0.30;95.30
72865;DHT22;61000;48.120;11.548;2023-02-08T13:18:15;0.40;95.40
72865;DHT22;61000;48.120;11.548;2023-02-08T13:20:45;0.40;95.40
72865;DHT22;61000;48.120;11.548;2023-02-08T13:23:20;0.40;95.30
72865;DHT22;61000;48.120;11.548;2023-02-08T13:25:51;0.40;95.20
72865;DHT22;61000;48.120;11.548;2023-02-08T13:28:22;0.10;96.50
72865;DHT22;61000;48.120;11.548;2023-02-08T13:30:58;0.20;97.20
72865;DHT22;61000;48.120;11.548;2023-02-08T13:33:31;0.50;96.80
72865;DHT22;61000;48.120;11.548;2023-02-08T13:36:00;0.70;95.60
72865;DHT22;61000;48.120;11.548;2023-02-08T13:38:32;0.60;94.70
72865;DHT22;61000;48.120;11.548;2023-02-08T13:41:12;0.60;94.60
72865;DHT22;61000;48.120;11.548;2023-02-08T13:43:45;0.70;94.20
72865;DHT22;61000;48.120;11.548;2023-02-08T13:46:15;0.50;94.30
72865;DHT22;61000;48.120;11.548;2023-02-08T13:48:45;0.50;94.50
72865;DHT22;61000;48.120;11.548;2023-02-08T13:54:23;0.60;94.10
72865;DHT22;61000;48.120;11.548;2023-02-08T13:56:51;0.60;94.20
72865;DHT22;61000;48.120;11.548;2023-02-08T13:59:34;0.50;93.80
72865;DHT22;61000;48.120;11.548;2023-02-08T14:02:24;0.40;93.70
72865;DHT22;61000;48.120;11.548;2023-02-08T14:04:53;0.20;94.40
72865;DHT22;61000;48.120;11.548;2023-02-08T14:07:37;0.20;94.70
72865;DHT22;61000;48.120;11.548;2023-02-08T14:10:20;0.30;94.60
72865;DHT22;61000;48.120;11.548;2023-02-08T14:12:54;0.20;94.60
72865;DHT22;61000;48.120;11.548;2023-02-08T14:15:29;0.20;94.40
72865;DHT22;61000;48.120;11.548;2023-02-08T14:17:57;0.10;95.20
72865;DHT22;61000;48.120;11.548;2023-02-08T14:20:29;0.20;95.20
72865;DHT22;61000;48.120;11.548;2023-02-08T14:22:59;0.30;95.30
72865;DHT22;61000;48.120;11.548;2023-02-08T14:25:28;0.30;95.50
72865;DHT22;61000;48.120;11.548;2023-02-08T14:27:57;0.30;95.50
72865;DHT22;61000;48.120;11.548;2023-02-08T14:30:28;0.20;95.40
72865;DHT22;61000;48.120;11.548;2023-02-08T14:33:10;0.20;95.70
72865;DHT22;61000;48.120;11.548;2023-02-08T14:35:40;0.20;95.70
72865;DHT22;61000;48.120;11.548;2023-02-08T14:38:30;0.20;95.80
72865;DHT22;61000;48.120;11.548;2023-02-08T14:40:59;0.20;95.60
72865;DHT22;61000;48.120;11.548;2023-02-08T14:43:31;0.20;95.80
72865;DHT22;61000;48.120;11.548;2023-02-08T14:49:12;0.20;95.20
72865;DHT22;61000;48.120;11.548;2023-02-08T14:51:43;0.20;95.50
72865;DHT22;61000;48.120;11.548;2023-02-08T14:54:18;0.10;94.50
72865;DHT22;61000;48.120;11.548;2023-02-08T14:56:53;0.00;94.10
72865;DHT22;61000;48.120;11.548;2023-02-08T14:59:24;0.00;94.10
72865;DHT22;61000;48.120;11.548;2023-02-08T15:01:55;0.00;94.00
72865;DHT22;61000;48.120;11.548;2023-02-08T15:04:25;0.00;94.30
72865;DHT22;61000;48.120;11.548;2023-02-08T15:07:05;0.00;94.30
72865;DHT22;61000;48.120;11.548;2023-02-08T15:09:36;0.00;94.30
72865;DHT22;61000;48.120;11.548;2023-02-08T15:12:06;0.10;94.30
72865;DHT22;61000;48.120;11.548;2023-02-08T15:14:35;0.00;94.30
72865;DHT22;61000;48.120;11.548;2023-02-08T15:17:06;-0.10;94.10
72865;DHT22;61000;48.120;11.548;2023-02-08T15:19:45;-0.10;94.10
72865;DHT22;61000;48.120;11.548;2023-02-08T15:22:17;-0.10;94.00
72865;DHT22;61000;48.120;11.548;2023-02-08T15:24:50;-0.10;93.80
72865;DHT22;61000;48.120;11.548;2023-02-08T15:27:22;-0.10;93.70
72865;DHT22;61000;48.120;11.548;2023-02-08T15:29:49;-0.10;93.70
72865;DHT22;61000;48.120;11.548;2023-02-08T15:32:19;-0.10;93.70
72865;DHT22;61000;48.120;11.548;2023-02-08T15:34:52;-0.10;93.50
72865;DHT22;61000;48.120;11.548;2023-02-08T15:37:20;-0.20;93.50
72865;DHT22;61000;48.120;11.548;2023-02-08T15:39:49;-0.30;93.60
72865;DHT22;61000;48.120;11.548;2023-02-08T15:42:19;-0.30;93.90
72865;DHT22;61000;48.120;11.548;2023-02-08T15:44:46;-0.30;94.10
72865;DHT22;61000;48.120;11.548;2023-02-08T15:47:16;-0.30;94.10
72865;DHT22;61000;48.120;11.548;2023-02-08T15:49:45;-0.40;94.30
72865;DHT22;61000;48.120;11.548;2023-02-08T15:52:17;-0.50;94.50
72865;DHT22;61000;48.120;11.548;2023-02-08T15:54:45;-0.50;94.70
72865;DHT22;61000;48.120;11.548;2023-02-08T15:57:25;-0.50;94.60
72865;DHT22;61000;48.120;11.548;2023-02-08T15:59:53;-0.50;94.50